DTTJ Airport Information

Runway Information
Runway 09 Length 10171 ft width 148 ft
Elevation 9 ft Threshold ft Heading 88
Runway 27 Length 10171 ft Width 148 ft
Elevation 18 ft Threshold ft Heading 268
Airport Frequencies
Type APP Name DJERBA APP Frequency 120.3 MHZ
Type TWR Name DJERBA TWR Frequency 118.15 MHZ
Airport Navaids
Type VOR-DME Name Djerba Frequency 112200 KHZ
Airport Weather Information & NOTAM
ADDS - METARS form results

(0349 UTC 06 December 2022)
Data provider http://aviationweather.gov/metar/data/
 
METAR text: DTTJ 060330Z 17006KT 6000 FEW020 11/10 Q1018 NOSIG
Conditions at: DTTJ (DJERBA MELLITA , TN) observed 0330 UTC 06 December 2022
Temperature: 11.0°C (52°F)
Dewpoint: 10.0°C (50°F) [RH = 94%]
Pressure (altimeter): 30.06 inches Hg (1018.0 mb)
Winds: from the S (170 degrees) at 7 MPH (6 knots; 3.1 m/s)
Visibility: 4 miles ( 6 km)
Ceiling: at least 12,000 feet AGL
Clouds: few clouds at 2000 feet AGL
Weather: no significant weather observed at this time

METAR text: DTTJ 060300Z 17008KT 8000 FEW020 11/10 Q1018 NOSIG
Conditions at: DTTJ (DJERBA MELLITA , TN) observed 0300 UTC 06 December 2022
Temperature: 11.0°C (52°F)
Dewpoint: 10.0°C (50°F) [RH = 94%]
Pressure (altimeter): 30.06 inches Hg (1018.0 mb)
Winds: from the S (170 degrees) at 9 MPH (8 knots; 4.1 m/s)
Visibility: 5 miles ( 8 km)
Ceiling: at least 12,000 feet AGL
Clouds: few clouds at 2000 feet AGL
Weather: no significant weather observed at this time

Forecast for: DTTJ (DJERBA MELLITA , TN)
Text: TAF DTTJ 052300Z 0600/0624 16006KT CAVOK
Forecast period: 0000 to 2000 UTC 06 December 2022
Forecast type: FROM: standard forecast or significant change
Winds: from the SSE (160 degrees) at 7 MPH (6 knots; 3.1 m/s)
Visibility: 6 or more miles (10+ km)
Ceiling: unknown
Clouds: missing
Weather: NSW  (no significant weather)
Text: PROB30
Forecast period: 0300 to 0700 UTC 06 December 2022
Forecast type: TEMPORARY: The following changes expected for less than half the time period
Visibility: 1.86 miles (2.99 km)
Ceiling: unknown
Clouds: missing
Weather: BR  (mist)
Text: TEMPO 0603/0607 3000 BR
Forecast period: 2000 UTC 06 December 2022 to 0000 UTC 07 December 2022
Forecast type: BECOMING: Conditions expected to become as follows by 2200 UTC 06 December 2022
Winds: from the SW (230 degrees) at 20 MPH (17 knots; 8.7 m/s)
Visibility: 6 or more miles (10+ km)
Ceiling: unknown
Clouds: missing
Weather: NSW  (no significant weather)